sensor_id;sensor_type;location;lat;lon;timestamp;temperature;humidity
23405;DHT22;11875;49.356;2.718;2023-11-21T02:08:50;11.30;99.90
23405;DHT22;11875;49.356;2.718;2023-11-21T02:11:16;11.20;99.90
23405;DHT22;11875;49.356;2.718;2023-11-21T02:13:42;11.20;99.90
23405;DHT22;11875;49.356;2.718;2023-11-21T02:16:09;11.20;99.90
23405;DHT22;11875;49.356;2.718;2023-11-21T02:18:36;11.20;99.90
23405;DHT22;11875;49.356;2.718;2023-11-21T02:21:04;11.20;99.90
23405;DHT22;11875;49.356;2.718;2023-11-21T02:23:30;11.10;99.90
23405;DHT22;11875;49.356;2.718;2023-11-21T02:25:56;11.10;99.90
23405;DHT22;11875;49.356;2.718;2023-11-21T02:28:21;11.00;99.90
23405;DHT22;11875;49.356;2.718;2023-11-21T02:30:51;11.00;99.90
23405;DHT22;11875;49.356;2.718;2023-11-21T02:33:21;11.00;99.90
23405;DHT22;11875;49.356;2.718;2023-11-21T02:35:47;11.00;99.90
23405;DHT22;11875;49.356;2.718;2023-11-21T02:38:12;10.90;99.90
23405;DHT22;11875;49.356;2.718;2023-11-21T02:40:38;11.00;99.90
23405;DHT22;11875;49.356;2.718;2023-11-21T02:43:03;11.00;99.90
23405;DHT22;11875;49.356;2.718;2023-11-21T02:45:31;11.00;99.90
23405;DHT22;11875;49.356;2.718;2023-11-21T02:47:57;11.00;99.90
23405;DHT22;11875;49.356;2.718;2023-11-21T02:50:23;11.00;99.90
23405;DHT22;11875;49.356;2.718;2023-11-21T02:52:49;11.10;99.90
23405;DHT22;11875;49.356;2.718;2023-11-21T02:55:15;11.10;99.90
23405;DHT22;11875;49.356;2.718;2023-11-21T02:57:40;11.00;99.90
23405;DHT22;11875;49.356;2.718;2023-11-21T03:00:06;11.00;99.90
23405;DHT22;11875;49.356;2.718;2023-11-21T03:02:33;11.00;99.90
23405;DHT22;11875;49.356;2.718;2023-11-21T03:04:58;11.00;99.90
23405;DHT22;11875;49.356;2.718;2023-11-21T03:07:24;11.00;99.90
23405;DHT22;11875;49.356;2.718;2023-11-21T03:09:50;10.90;99.90
23405;DHT22;11875;49.356;2.718;2023-11-21T03:12:15;10.90;99.90
23405;DHT22;11875;49.356;2.718;2023-11-21T03:14:41;10.90;99.90
23405;DHT22;11875;49.356;2.718;2023-11-21T03:17:07;11.00;99.90
23405;DHT22;11875;49.356;2.718;2023-11-21T03:19:32;10.90;99.90
23405;DHT22;11875;49.356;2.718;2023-11-21T03:21:58;11.00;99.90
23405;DHT22;11875;49.356;2.718;2023-11-21T03:24:24;11.00;99.90
23405;DHT22;11875;49.356;2.718;2023-11-21T03:26:50;11.00;99.90
23405;DHT22;11875;49.356;2.718;2023-11-21T03:29:16;11.00;99.90
23405;DHT22;11875;49.356;2.718;2023-11-21T03:31:42;11.00;99.90
23405;DHT22;11875;49.356;2.718;2023-11-21T03:34:14;11.00;99.90
23405;DHT22;11875;49.356;2.718;2023-11-21T03:36:39;11.10;99.90
23405;DHT22;11875;49.356;2.718;2023-11-21T03:39:05;11.10;99.90
23405;DHT22;11875;49.356;2.718;2023-11-21T03:41:31;11.10;99.90
23405;DHT22;11875;49.356;2.718;2023-11-21T03:43:56;11.10;99.90
23405;DHT22;11875;49.356;2.718;2023-11-21T03:46:22;11.10;99.90
23405;DHT22;11875;49.356;2.718;2023-11-21T03:48:47;11.10;99.90
23405;DHT22;11875;49.356;2.718;2023-11-21T03:51:13;11.10;99.90
23405;DHT22;11875;49.356;2.718;2023-11-21T03:53:38;11.10;99.90
23405;DHT22;11875;49.356;2.718;2023-11-21T03:56:04;11.00;99.90
23405;DHT22;11875;49.356;2.718;2023-11-21T03:58:30;11.00;99.90
23405;DHT22;11875;49.356;2.718;2023-11-21T04:00:56;11.00;99.90
23405;DHT22;11875;49.356;2.718;2023-11-21T04:03:21;11.10;99.90
23405;DHT22;11875;49.356;2.718;2023-11-21T04:05:47;11.10;99.90
23405;DHT22;11875;49.356;2.718;2023-11-21T04:08:12;11.20;99.90
23405;DHT22;11875;49.356;2.718;2023-11-21T04:10:38;11.20;99.90
23405;DHT22;11875;49.356;2.718;2023-11-21T04:13:05;11.30;99.90
23405;DHT22;11875;49.356;2.718;2023-11-21T04:15:32;11.30;99.90
23405;DHT22;11875;49.356;2.718;2023-11-21T04:17:57;11.30;99.90
23405;DHT22;11875;49.356;2.718;2023-11-21T04:20:24;11.30;99.90
23405;DHT22;11875;49.356;2.718;2023-11-21T04:22:49;11.30;99.90
23405;DHT22;11875;49.356;2.718;2023-11-21T04:25:15;11.30;99.90
23405;DHT22;11875;49.356;2.718;2023-11-21T04:27:41;11.40;99.90
23405;DHT22;11875;49.356;2.718;2023-11-21T04:30:10;11.40;99.90
23405;DHT22;11875;49.356;2.718;2023-11-21T04:32:36;11.50;99.90
23405;DHT22;11875;49.356;2.718;2023-11-21T04:35:02;11.50;99.90
23405;DHT22;11875;49.356;2.718;2023-11-21T04:37:27;11.40;99.90
23405;DHT22;11875;49.356;2.718;2023-11-21T04:39:53;11.40;99.90
23405;DHT22;11875;49.356;2.718;2023-11-21T04:42:18;11.40;99.90
23405;DHT22;11875;49.356;2.718;2023-11-21T04:44:44;11.40;99.90
23405;DHT22;11875;49.356;2.718;2023-11-21T04:47:10;11.30;99.90
23405;DHT22;11875;49.356;2.718;2023-11-21T04:49:36;11.40;99.90
23405;DHT22;11875;49.356;2.718;2023-11-21T04:52:01;11.40;99.90
23405;DHT22;11875;49.356;2.718;2023-11-21T04:54:29;11.40;99.90
23405;DHT22;11875;49.356;2.718;2023-11-21T04:56:55;11.50;99.90
23405;DHT22;11875;49.356;2.718;2023-11-21T04:59:21;11.50;99.90
23405;DHT22;11875;49.356;2.718;2023-11-21T05:01:50;11.50;99.90
23405;DHT22;11875;49.356;2.718;2023-11-21T05:04:15;11.40;99.90
23405;DHT22;11875;49.356;2.718;2023-11-21T05:06:41;11.50;99.90
23405;DHT22;11875;49.356;2.718;2023-11-21T05:09:06;11.50;99.90
23405;DHT22;11875;49.356;2.718;2023-11-21T05:11:37;11.50;99.90
23405;DHT22;11875;49.356;2.718;2023-11-21T05:14:03;11.50;99.90
23405;DHT22;11875;49.356;2.718;2023-11-21T05:16:29;11.50;99.90
23405;DHT22;11875;49.356;2.718;2023-11-21T05:18:55;11.60;99.90
23405;DHT22;11875;49.356;2.718;2023-11-21T05:21:26;11.60;99.90
23405;DHT22;11875;49.356;2.718;2023-11-21T05:23:51;11.60;99.90
23405;DHT22;11875;49.356;2.718;2023-11-21T05:26:17;11.70;99.90
23405;DHT22;11875;49.356;2.718;2023-11-21T05:28:42;11.60;99.90
23405;DHT22;11875;49.356;2.718;2023-11-21T05:31:08;11.60;99.90
23405;DHT22;11875;49.356;2.718;2023-11-21T05:33:33;11.60;99.90
23405;DHT22;11875;49.356;2.718;2023-11-21T05:35:59;11.60;99.90
23405;DHT22;11875;49.356;2.718;2023-11-21T05:38:25;11.60;99.90
23405;DHT22;11875;49.356;2.718;2023-11-21T05:40:51;11.60;99.90
23405;DHT22;11875;49.356;2.718;2023-11-21T05:43:16;11.60;99.90
23405;DHT22;11875;49.356;2.718;2023-11-21T05:45:43;11.50;99.90
23405;DHT22;11875;49.356;2.718;2023-11-21T05:48:08;11.40;99.90
23405;DHT22;11875;49.356;2.718;2023-11-21T05:50:34;11.40;99.90
23405;DHT22;11875;49.356;2.718;2023-11-21T05:52:59;11.30;99.90
23405;DHT22;11875;49.356;2.718;2023-11-21T05:55:26;11.30;99.90
23405;DHT22;11875;49.356;2.718;2023-11-21T05:57:51;11.30;99.90
23405;DHT22;11875;49.356;2.718;2023-11-21T06:00:17;11.20;99.90
23405;DHT22;11875;49.356;2.718;2023-11-21T06:02:48;11.20;99.90
23405;DHT22;11875;49.356;2.718;2023-11-21T06:05:17;11.20;99.90
23405;DHT22;11875;49.356;2.718;2023-11-21T06:07:44;11.30;99.90
23405;DHT22;11875;49.356;2.718;2023-11-21T06:10:11;11.40;99.90
23405;DHT22;11875;49.356;2.718;2023-11-21T06:12:38;11.50;99.90
23405;DHT22;11875;49.356;2.718;2023-11-21T06:15:05;11.30;99.90
23405;DHT22;11875;49.356;2.718;2023-11-21T06:17:34;11.30;99.90
23405;DHT22;11875;49.356;2.718;2023-11-21T06:20:02;11.40;99.90
23405;DHT22;11875;49.356;2.718;2023-11-21T06:22:37;11.40;99.90
23405;DHT22;11875;49.356;2.718;2023-11-21T06:25:03;11.40;99.90
23405;DHT22;11875;49.356;2.718;2023-11-21T06:27:33;11.40;99.90
23405;DHT22;11875;49.356;2.718;2023-11-21T06:29:59;11.50;99.90
23405;DHT22;11875;49.356;2.718;2023-11-21T06:32:25;11.50;99.90
23405;DHT22;11875;49.356;2.718;2023-11-21T06:34:51;11.40;99.90
23405;DHT22;11875;49.356;2.718;2023-11-21T06:37:19;11.40;99.90
23405;DHT22;11875;49.356;2.718;2023-11-21T06:39:46;11.40;99.90
23405;DHT22;11875;49.356;2.718;2023-11-21T06:42:11;11.40;99.90
23405;DHT22;11875;49.356;2.718;2023-11-21T06:44:38;11.50;99.90
23405;DHT22;11875;49.356;2.718;2023-11-21T06:47:04;11.50;99.90
23405;DHT22;11875;49.356;2.718;2023-11-21T06:49:30;11.50;99.90
23405;DHT22;11875;49.356;2.718;2023-11-21T06:51:56;11.50;99.90
23405;DHT22;11875;49.356;2.718;2023-11-21T06:54:22;11.50;99.90
23405;DHT22;11875;49.356;2.718;2023-11-21T06:56:48;11.50;99.90
23405;DHT22;11875;49.356;2.718;2023-11-21T06:59:13;11.60;99.90
23405;DHT22;11875;49.356;2.718;2023-11-21T07:01:39;11.60;99.90
23405;DHT22;11875;49.356;2.718;2023-11-21T07:04:07;11.50;99.90
23405;DHT22;11875;49.356;2.718;2023-11-21T07:06:32;11.50;99.90
23405;DHT22;11875;49.356;2.718;2023-11-21T07:08:58;11.50;99.90
23405;DHT22;11875;49.356;2.718;2023-11-21T07:11:25;11.50;99.90
23405;DHT22;11875;49.356;2.718;2023-11-21T07:13:50;11.60;99.90
23405;DHT22;11875;49.356;2.718;2023-11-21T07:16:16;11.50;99.90
23405;DHT22;11875;49.356;2.718;2023-11-21T07:18:42;11.50;99.90
23405;DHT22;11875;49.356;2.718;2023-11-21T07:21:08;11.60;99.90
23405;DHT22;11875;49.356;2.718;2023-11-21T07:23:34;11.60;99.90
23405;DHT22;11875;49.356;2.718;2023-11-21T07:25:59;11.70;99.90
23405;DHT22;11875;49.356;2.718;2023-11-21T07:28:25;11.70;99.90
23405;DHT22;11875;49.356;2.718;2023-11-21T07:30:51;11.70;99.90
23405;DHT22;11875;49.356;2.718;2023-11-21T07:33:16;11.70;99.90
23405;DHT22;11875;49.356;2.718;2023-11-21T07:35:43;11.70;99.90
23405;DHT22;11875;49.356;2.718;2023-11-21T07:38:08;11.70;99.90
23405;DHT22;11875;49.356;2.718;2023-11-21T07:40:34;11.70;99.90
23405;DHT22;11875;49.356;2.718;2023-11-21T07:42:59;11.70;99.90
23405;DHT22;11875;49.356;2.718;2023-11-21T07:45:25;11.70;99.90
23405;DHT22;11875;49.356;2.718;2023-11-21T07:47:53;11.70;99.90
23405;DHT22;11875;49.356;2.718;2023-11-21T07:50:20;11.80;99.90
23405;DHT22;11875;49.356;2.718;2023-11-21T07:52:46;11.80;99.90
23405;DHT22;11875;49.356;2.718;2023-11-21T07:55:11;11.90;99.90
23405;DHT22;11875;49.356;2.718;2023-11-21T07:57:37;11.90;99.90
23405;DHT22;11875;49.356;2.718;2023-11-21T08:00:04;11.80;99.90
23405;DHT22;11875;49.356;2.718;2023-11-21T08:02:34;11.90;99.90
23405;DHT22;11875;49.356;2.718;2023-11-21T08:05:00;11.90;99.90
23405;DHT22;11875;49.356;2.718;2023-11-21T08:07:26;12.00;99.90
23405;DHT22;11875;49.356;2.718;2023-11-21T08:09:51;12.00;99.90
23405;DHT22;11875;49.356;2.718;2023-11-21T08:12:18;12.10;99.90
23405;DHT22;11875;49.356;2.718;2023-11-21T08:14:45;12.10;99.90
23405;DHT22;11875;49.356;2.718;2023-11-21T08:17:11;12.10;99.90
23405;DHT22;11875;49.356;2.718;2023-11-21T08:19:36;12.10;99.90
23405;DHT22;11875;49.356;2.718;2023-11-21T08:22:03;12.10;99.90
23405;DHT22;11875;49.356;2.718;2023-11-21T08:24:29;12.10;99.90
23405;DHT22;11875;49.356;2.718;2023-11-21T08:26:54;12.10;99.90
23405;DHT22;11875;49.356;2.718;2023-11-21T08:29:20;12.10;99.90
23405;DHT22;11875;49.356;2.718;2023-11-21T08:31:46;12.10;99.90
23405;DHT22;11875;49.356;2.718;2023-11-21T08:34:14;12.10;99.90
23405;DHT22;11875;49.356;2.718;2023-11-21T08:36:44;12.10;99.90
23405;DHT22;11875;49.356;2.718;2023-11-21T08:39:10;12.20;99.90
23405;DHT22;11875;49.356;2.718;2023-11-21T08:41:36;12.20;99.90
23405;DHT22;11875;49.356;2.718;2023-11-21T08:44:02;12.20;99.90
23405;DHT22;11875;49.356;2.718;2023-11-21T08:46:32;12.30;99.90
23405;DHT22;11875;49.356;2.718;2023-11-21T08:49:00;12.30;99.90
23405;DHT22;11875;49.356;2.718;2023-11-21T08:51:26;12.30;99.90
23405;DHT22;11875;49.356;2.718;2023-11-21T08:53:52;12.40;99.90
23405;DHT22;11875;49.356;2.718;2023-11-21T08:56:18;12.40;99.90
23405;DHT22;11875;49.356;2.718;2023-11-21T08:58:45;12.30;99.90
23405;DHT22;11875;49.356;2.718;2023-11-21T09:01:12;12.30;99.90
23405;DHT22;11875;49.356;2.718;2023-11-21T09:03:38;12.40;99.90
23405;DHT22;11875;49.356;2.718;2023-11-21T09:06:04;12.40;99.90
23405;DHT22;11875;49.356;2.718;2023-11-21T09:08:30;12.40;99.90
23405;DHT22;11875;49.356;2.718;2023-11-21T09:10:55;12.40;99.90
23405;DHT22;11875;49.356;2.718;2023-11-21T09:13:21;12.40;99.90
23405;DHT22;11875;49.356;2.718;2023-11-21T09:15:47;12.40;99.90
23405;DHT22;11875;49.356;2.718;2023-11-21T09:18:13;12.60;99.90
23405;DHT22;11875;49.356;2.718;2023-11-21T09:20:39;12.50;99.90
23405;DHT22;11875;49.356;2.718;2023-11-21T09:23:05;12.60;99.90
23405;DHT22;11875;49.356;2.718;2023-11-21T09:25:30;12.60;99.90
23405;DHT22;11875;49.356;2.718;2023-11-21T09:27:56;12.70;99.90
23405;DHT22;11875;49.356;2.718;2023-11-21T09:30:23;12.70;99.90
23405;DHT22;11875;49.356;2.718;2023-11-21T09:32:50;12.70;99.90
23405;DHT22;11875;49.356;2.718;2023-11-21T09:35:16;14.00;99.90
23405;DHT22;11875;49.356;2.718;2023-11-21T09:37:43;12.70;99.90
23405;DHT22;11875;49.356;2.718;2023-11-21T09:40:11;12.70;99.90
23405;DHT22;11875;49.356;2.718;2023-11-21T09:42:54;12.70;99.90
23405;DHT22;11875;49.356;2.718;2023-11-21T09:45:27;12.80;99.90
23405;DHT22;11875;49.356;2.718;2023-11-21T09:47:55;12.80;99.90
23405;DHT22;11875;49.356;2.718;2023-11-21T09:50:22;12.80;99.90
23405;DHT22;11875;49.356;2.718;2023-11-21T09:55:18;12.90;99.90
23405;DHT22;11875;49.356;2.718;2023-11-21T09:57:47;12.80;99.90
23405;DHT22;11875;49.356;2.718;2023-11-21T10:00:14;12.90;99.90
23405;DHT22;11875;49.356;2.718;2023-11-21T10:02:43;13.00;99.90
23405;DHT22;11875;49.356;2.718;2023-11-21T10:05:09;13.00;99.90
23405;DHT22;11875;49.356;2.718;2023-11-21T10:07:37;13.10;99.90
23405;DHT22;11875;49.356;2.718;2023-11-21T10:10:03;13.00;99.90
23405;DHT22;11875;49.356;2.718;2023-11-21T10:12:30;12.90;99.90
23405;DHT22;11875;49.356;2.718;2023-11-21T10:14:58;13.00;99.90
23405;DHT22;11875;49.356;2.718;2023-11-21T10:17:25;13.00;99.90
23405;DHT22;11875;49.356;2.718;2023-11-21T10:19:56;13.10;99.90
23405;DHT22;11875;49.356;2.718;2023-11-21T10:22:23;13.00;99.90
23405;DHT22;11875;49.356;2.718;2023-11-21T10:24:49;12.90;99.90
23405;DHT22;11875;49.356;2.718;2023-11-21T10:27:14;12.90;99.90
23405;DHT22;11875;49.356;2.718;2023-11-21T10:29:40;13.00;99.90
23405;DHT22;11875;49.356;2.718;2023-11-21T10:32:07;13.00;99.90
23405;DHT22;11875;49.356;2.718;2023-11-21T10:34:33;13.10;99.90
23405;DHT22;11875;49.356;2.718;2023-11-21T10:37:11;13.20;99.90
23405;DHT22;11875;49.356;2.718;2023-11-21T10:39:36;13.30;99.90
23405;DHT22;11875;49.356;2.718;2023-11-21T10:42:02;13.20;99.90
23405;DHT22;11875;49.356;2.718;2023-11-21T10:44:28;13.30;99.90
23405;DHT22;11875;49.356;2.718;2023-11-21T10:46:54;13.40;99.90
23405;DHT22;11875;49.356;2.718;2023-11-21T10:49:30;13.30;99.90
23405;DHT22;11875;49.356;2.718;2023-11-21T10:51:56;13.30;99.90
23405;DHT22;11875;49.356;2.718;2023-11-21T10:54:24;13.30;99.90
23405;DHT22;11875;49.356;2.718;2023-11-21T10:57:00;13.20;99.90
23405;DHT22;11875;49.356;2.718;2023-11-21T10:59:30;13.30;99.90
23405;DHT22;11875;49.356;2.718;2023-11-21T11:01:58;13.40;99.90
23405;DHT22;11875;49.356;2.718;2023-11-21T11:04:27;13.40;99.90
23405;DHT22;11875;49.356;2.718;2023-11-21T11:07:03;13.50;99.90
23405;DHT22;11875;49.356;2.718;2023-11-21T11:09:31;13.50;99.90
23405;DHT22;11875;49.356;2.718;2023-11-21T11:11:58;13.50;99.90
23405;DHT22;11875;49.356;2.718;2023-11-21T11:14:25;13.50;99.90
23405;DHT22;11875;49.356;2.718;2023-11-21T11:16:54;13.50;99.90
23405;DHT22;11875;49.356;2.718;2023-11-21T11:19:20;13.40;99.90
23405;DHT22;11875;49.356;2.718;2023-11-21T11:33:39;13.30;99.90
23405;DHT22;11875;49.356;2.718;2023-11-21T11:38:55;13.40;99.90
23405;DHT22;11875;49.356;2.718;2023-11-21T11:41:26;13.50;99.90
23405;DHT22;11875;49.356;2.718;2023-11-21T11:43:53;13.50;99.90
23405;DHT22;11875;49.356;2.718;2023-11-21T11:46:19;13.30;99.90
23405;DHT22;11875;49.356;2.718;2023-11-21T11:48:48;13.30;99.90
23405;DHT22;11875;49.356;2.718;2023-11-21T11:51:14;13.40;99.90
23405;DHT22;11875;49.356;2.718;2023-11-21T11:53:43;13.40;99.90
23405;DHT22;11875;49.356;2.718;2023-11-21T11:56:22;13.40;99.90
23405;DHT22;11875;49.356;2.718;2023-11-21T11:58:49;13.40;99.90
23405;DHT22;11875;49.356;2.718;2023-11-21T12:01:20;13.40;99.90
23405;DHT22;11875;49.356;2.718;2023-11-21T12:04:24;13.40;99.90
23405;DHT22;11875;49.356;2.718;2023-11-21T12:06:56;13.40;99.90
23405;DHT22;11875;49.356;2.718;2023-11-21T12:09:25;13.60;99.90
23405;DHT22;11875;49.356;2.718;2023-11-21T12:11:52;13.60;99.90
23405;DHT22;11875;49.356;2.718;2023-11-21T12:14:18;13.50;99.90
23405;DHT22;11875;49.356;2.718;2023-11-21T12:16:45;13.50;99.90
23405;DHT22;11875;49.356;2.718;2023-11-21T12:19:11;13.50;99.90
23405;DHT22;11875;49.356;2.718;2023-11-21T12:21:38;13.50;99.90
23405;DHT22;11875;49.356;2.718;2023-11-21T12:24:06;13.60;99.90
23405;DHT22;11875;49.356;2.718;2023-11-21T12:26:34;13.50;99.90
23405;DHT22;11875;49.356;2.718;2023-11-21T12:29:00;13.60;99.90
23405;DHT22;11875;49.356;2.718;2023-11-21T12:31:28;13.60;99.90
23405;DHT22;11875;49.356;2.718;2023-11-21T12:33:55;13.70;99.90
23405;DHT22;11875;49.356;2.718;2023-11-21T12:36:21;13.80;99.90
23405;DHT22;11875;49.356;2.718;2023-11-21T12:38:47;13.70;99.90
23405;DHT22;11875;49.356;2.718;2023-11-21T12:41:13;13.70;99.90
23405;DHT22;11875;49.356;2.718;2023-11-21T12:43:41;13.70;99.90
23405;DHT22;11875;49.356;2.718;2023-11-21T12:46:10;15.00;99.90
23405;DHT22;11875;49.356;2.718;2023-11-21T12:48:39;13.80;99.90
23405;DHT22;11875;49.356;2.718;2023-11-21T12:51:06;13.80;99.90
23405;DHT22;11875;49.356;2.718;2023-11-21T12:53:32;13.70;99.90
23405;DHT22;11875;49.356;2.718;2023-11-21T12:56:12;13.80;99.90
23405;DHT22;11875;49.356;2.718;2023-11-21T12:58:39;13.70;99.90
23405;DHT22;11875;49.356;2.718;2023-11-21T13:01:06;13.90;99.90
23405;DHT22;11875;49.356;2.718;2023-11-21T13:03:40;13.90;99.90
23405;DHT22;11875;49.356;2.718;2023-11-21T13:06:06;13.90;99.90
23405;DHT22;11875;49.356;2.718;2023-11-21T13:08:33;14.00;99.90
23405;DHT22;11875;49.356;2.718;2023-11-21T13:10:59;14.10;99.90
23405;DHT22;11875;49.356;2.718;2023-11-21T13:13:28;14.20;99.90
23405;DHT22;11875;49.356;2.718;2023-11-21T13:16:01;14.10;99.90
23405;DHT22;11875;49.356;2.718;2023-11-21T13:18:30;14.10;99.90
23405;DHT22;11875;49.356;2.718;2023-11-21T13:21:04;14.10;99.90
23405;DHT22;11875;49.356;2.718;2023-11-21T13:23:35;14.00;99.90
23405;DHT22;11875;49.356;2.718;2023-11-21T13:26:04;14.00;99.90
23405;DHT22;11875;49.356;2.718;2023-11-21T13:28:30;14.00;99.90
23405;DHT22;11875;49.356;2.718;2023-11-21T13:31:00;14.00;99.90
23405;DHT22;11875;49.356;2.718;2023-11-21T13:33:38;14.00;99.90
23405;DHT22;11875;49.356;2.718;2023-11-21T13:36:06;14.00;99.90
23405;DHT22;11875;49.356;2.718;2023-11-21T13:38:35;14.00;99.90
23405;DHT22;11875;49.356;2.718;2023-11-21T13:41:03;14.10;99.90
23405;DHT22;11875;49.356;2.718;2023-11-21T13:43:32;14.20;99.90
23405;DHT22;11875;49.356;2.718;2023-11-21T13:45:59;14.10;99.90
23405;DHT22;11875;49.356;2.718;2023-11-21T13:48:29;14.20;99.90
23405;DHT22;11875;49.356;2.718;2023-11-21T13:51:06;14.40;99.90
23405;DHT22;11875;49.356;2.718;2023-11-21T13:53:58;14.40;99.90
23405;DHT22;11875;49.356;2.718;2023-11-21T13:56:24;14.40;99.90
23405;DHT22;11875;49.356;2.718;2023-11-21T13:58:51;14.40;99.90
23405;DHT22;11875;49.356;2.718;2023-11-21T14:01:20;14.40;99.90
23405;DHT22;11875;49.356;2.718;2023-11-21T14:03:59;14.40;99.90
23405;DHT22;11875;49.356;2.718;2023-11-21T14:06:35;14.30;99.90
23405;DHT22;11875;49.356;2.718;2023-11-21T14:09:11;14.40;99.90
23405;DHT22;11875;49.356;2.718;2023-11-21T14:11:39;14.20;99.90
23405;DHT22;11875;49.356;2.718;2023-11-21T14:14:05;14.10;99.90
23405;DHT22;11875;49.356;2.718;2023-11-21T14:16:31;14.10;99.90
23405;DHT22;11875;49.356;2.718;2023-11-21T14:18:56;14.20;99.90
23405;DHT22;11875;49.356;2.718;2023-11-21T14:21:29;14.20;99.90
23405;DHT22;11875;49.356;2.718;2023-11-21T14:23:54;14.20;99.90
23405;DHT22;11875;49.356;2.718;2023-11-21T14:26:20;14.20;99.90
23405;DHT22;11875;49.356;2.718;2023-11-21T14:28:46;14.20;99.90
23405;DHT22;11875;49.356;2.718;2023-11-21T14:31:14;14.10;99.90
23405;DHT22;11875;49.356;2.718;2023-11-21T14:33:44;14.10;99.90
23405;DHT22;11875;49.356;2.718;2023-11-21T14:36:09;14.10;99.90
23405;DHT22;11875;49.356;2.718;2023-11-21T14:38:38;14.20;99.90
23405;DHT22;11875;49.356;2.718;2023-11-21T14:41:05;14.30;99.90
23405;DHT22;11875;49.356;2.718;2023-11-21T14:43:34;14.30;99.90
23405;DHT22;11875;49.356;2.718;2023-11-21T14:46:01;14.20;99.90
23405;DHT22;11875;49.356;2.718;2023-11-21T14:48:28;14.20;99.90
23405;DHT22;11875;49.356;2.718;2023-11-21T14:51:08;14.20;99.90
23405;DHT22;11875;49.356;2.718;2023-11-21T14:53:54;14.10;99.90
23405;DHT22;11875;49.356;2.718;2023-11-21T14:56:23;14.10;99.90
23405;DHT22;11875;49.356;2.718;2023-11-21T14:59:01;14.10;99.90
23405;DHT22;11875;49.356;2.718;2023-11-21T15:01:41;14.10;99.90
23405;DHT22;11875;49.356;2.718;2023-11-21T15:04:23;14.00;99.90
23405;DHT22;11875;49.356;2.718;2023-11-21T15:07:05;14.10;99.90
23405;DHT22;11875;49.356;2.718;2023-11-21T15:09:31;14.10;99.90
23405;DHT22;11875;49.356;2.718;2023-11-21T15:11:57;14.10;99.90
23405;DHT22;11875;49.356;2.718;2023-11-21T15:14:29;14.00;99.90
23405;DHT22;11875;49.356;2.718;2023-11-21T15:16:58;14.00;99.90
23405;DHT22;11875;49.356;2.718;2023-11-21T15:19:28;14.10;99.90
23405;DHT22;11875;49.356;2.718;2023-11-21T15:21:54;14.10;99.90
23405;DHT22;11875;49.356;2.718;2023-11-21T15:24:20;14.10;99.90
23405;DHT22;11875;49.356;2.718;2023-11-21T15:26:45;14.20;99.90
23405;DHT22;11875;49.356;2.718;2023-11-21T15:29:11;14.20;99.90
23405;DHT22;11875;49.356;2.718;2023-11-21T15:31:38;14.20;99.90
23405;DHT22;11875;49.356;2.718;2023-11-21T15:34:06;14.10;99.90
23405;DHT22;11875;49.356;2.718;2023-11-21T15:36:32;14.20;99.90
23405;DHT22;11875;49.356;2.718;2023-11-21T15:38:59;13.90;99.90
23405;DHT22;11875;49.356;2.718;2023-11-21T15:41:24;14.00;99.90
23405;DHT22;11875;49.356;2.718;2023-11-21T15:43:50;14.00;99.90
23405;DHT22;11875;49.356;2.718;2023-11-21T15:46:16;13.80;99.90
23405;DHT22;11875;49.356;2.718;2023-11-21T15:48:42;13.90;99.90
23405;DHT22;11875;49.356;2.718;2023-11-21T15:51:15;14.00;99.90
23405;DHT22;11875;49.356;2.718;2023-11-21T15:53:41;14.00;99.90
23405;DHT22;11875;49.356;2.718;2023-11-21T15:56:07;13.90;99.90
23405;DHT22;11875;49.356;2.718;2023-11-21T15:58:37;13.90;99.90
23405;DHT22;11875;49.356;2.718;2023-11-21T16:01:02;13.80;99.90
23405;DHT22;11875;49.356;2.718;2023-11-21T16:03:28;13.80;99.90
23405;DHT22;11875;49.356;2.718;2023-11-21T16:05:56;13.80;99.90
23405;DHT22;11875;49.356;2.718;2023-11-21T16:08:21;13.80;99.90
23405;DHT22;11875;49.356;2.718;2023-11-21T16:10:47;13.80;99.90
23405;DHT22;11875;49.356;2.718;2023-11-21T16:13:14;13.80;99.90
23405;DHT22;11875;49.356;2.718;2023-11-21T16:15:39;13.80;99.90
23405;DHT22;11875;49.356;2.718;2023-11-21T16:18:05;13.80;99.90
23405;DHT22;11875;49.356;2.718;2023-11-21T16:20:30;13.70;99.90
23405;DHT22;11875;49.356;2.718;2023-11-21T16:22:56;13.60;99.90
23405;DHT22;11875;49.356;2.718;2023-11-21T16:25:21;13.70;99.90
23405;DHT22;11875;49.356;2.718;2023-11-21T16:27:47;13.60;99.90
23405;DHT22;11875;49.356;2.718;2023-11-21T16:30:13;13.70;99.90
23405;DHT22;11875;49.356;2.718;2023-11-21T16:32:39;13.60;99.90
23405;DHT22;11875;49.356;2.718;2023-11-21T16:35:05;13.60;99.90
23405;DHT22;11875;49.356;2.718;2023-11-21T16:37:31;13.60;99.90
23405;DHT22;11875;49.356;2.718;2023-11-21T16:39:57;13.60;99.90
23405;DHT22;11875;49.356;2.718;2023-11-21T16:42:24;13.60;99.90
23405;DHT22;11875;49.356;2.718;2023-11-21T16:44:50;13.50;99.90
23405;DHT22;11875;49.356;2.718;2023-11-21T16:47:18;13.60;99.90
23405;DHT22;11875;49.356;2.718;2023-11-21T16:49:44;13.60;99.90
23405;DHT22;11875;49.356;2.718;2023-11-21T16:52:10;13.60;99.90
23405;DHT22;11875;49.356;2.718;2023-11-21T16:54:36;13.60;99.90
23405;DHT22;11875;49.356;2.718;2023-11-21T16:57:02;13.50;99.90
23405;DHT22;11875;49.356;2.718;2023-11-21T16:59:28;13.50;99.90
23405;DHT22;11875;49.356;2.718;2023-11-21T17:01:53;13.60;99.90
23405;DHT22;11875;49.356;2.718;2023-11-21T17:04:19;13.50;99.90
23405;DHT22;11875;49.356;2.718;2023-11-21T17:06:45;13.80;99.90
23405;DHT22;11875;49.356;2.718;2023-11-21T17:09:12;13.40;99.90
23405;DHT22;11875;49.356;2.718;2023-11-21T17:11:47;13.40;99.90
23405;DHT22;11875;49.356;2.718;2023-11-21T17:14:12;13.30;99.90
23405;DHT22;11875;49.356;2.718;2023-11-21T17:16:38;13.30;99.90
23405;DHT22;11875;49.356;2.718;2023-11-21T17:19:05;13.30;99.90
23405;DHT22;11875;49.356;2.718;2023-11-21T17:21:31;13.20;99.90
23405;DHT22;11875;49.356;2.718;2023-11-21T17:23:57;13.30;99.90
23405;DHT22;11875;49.356;2.718;2023-11-21T17:26:23;13.40;99.90
23405;DHT22;11875;49.356;2.718;2023-11-21T17:28:48;13.40;99.90
23405;DHT22;11875;49.356;2.718;2023-11-21T17:31:14;13.40;99.90
23405;DHT22;11875;49.356;2.718;2023-11-21T17:33:40;13.40;99.90
23405;DHT22;11875;49.356;2.718;2023-11-21T17:36:07;13.50;99.90
23405;DHT22;11875;49.356;2.718;2023-11-21T17:38:35;13.50;99.90
23405;DHT22;11875;49.356;2.718;2023-11-21T17:41:01;13.60;99.90
23405;DHT22;11875;49.356;2.718;2023-11-21T17:43:26;13.60;99.90
23405;DHT22;11875;49.356;2.718;2023-11-21T17:45:52;13.50;99.90
23405;DHT22;11875;49.356;2.718;2023-11-21T17:48:17;13.40;99.90
23405;DHT22;11875;49.356;2.718;2023-11-21T17:50:43;13.30;99.90
23405;DHT22;11875;49.356;2.718;2023-11-21T17:53:09;13.30;99.90
23405;DHT22;11875;49.356;2.718;2023-11-21T17:55:34;13.30;99.90